Time;durP1;ratioP1;P1;durP2;ratioP2;P2;SDS_P1;SDS_P2;PMS_P1;PMS_P2;Temp;Humidity;BMP_temperature;BMP_pressure;BME280_temperature;BME280_humidity;BME280_pressure;Samples;Min_cycle;Max_cycle;Signal;HPM_P1;HPM_P2
2021/03/27 00:02:04;;;;;;;6.10;2.70;;;8.40;99.90;;;;;;5006260;28;20619;-65
2021/03/27 00:04:49;;;;;;;5.27;3.20;;;8.30;99.90;;;;;;5005833;28;20184;-66
2021/03/27 00:07:36;;;;;;;5.50;3.00;;;8.40;99.90;;;;;;5004401;28;20189;-68
2021/03/27 00:10:37;;;;;;;5.57;2.90;;;8.40;99.90;;;;;;5003277;28;20657;-67
2021/03/27 00:13:30;;;;;;;8.23;3.37;;;8.40;99.90;;;;;;5003845;28;20902;-65
2021/03/27 00:16:31;;;;;;;3.63;2.80;;;8.40;99.90;;;;;;5002775;28;20752;-68
2021/03/27 00:19:10;;;;;;;5.67;2.80;;;8.50;99.90;;;;;;4998215;28;20205;-67
2021/03/27 00:21:47;;;;;;;4.90;2.90;;;8.40;99.90;;;;;;5002178;28;20630;-66
2021/03/27 00:24:42;;;;;;;6.97;3.30;;;8.30;99.90;;;;;;5002500;28;20207;-66
2021/03/27 00:27:19;;;;;;;4.83;2.93;;;8.30;99.90;;;;;;4992093;28;20182;-65
2021/03/27 00:29:52;;;;;;;5.63;3.20;;;8.10;99.90;;;;;;4990201;28;20676;-65
2021/03/27 00:32:44;;;;;;;5.00;2.80;;;8.10;99.90;;;;;;5003509;28;20239;-66
2021/03/27 00:35:29;;;;;;;6.43;3.47;;;8.00;99.90;;;;;;5009737;28;20192;-69
2021/03/27 00:38:03;;;;;;;5.40;2.90;;;8.10;99.90;;;;;;5004330;28;20829;-66
2021/03/27 00:40:34;;;;;;;7.53;3.20;;;8.10;99.90;;;;;;5004344;28;20188;-66
2021/03/27 00:43:20;;;;;;;8.00;3.67;;;8.20;99.90;;;;;;5006490;28;20188;-69
2021/03/27 00:45:58;;;;;;;7.50;3.13;;;8.20;99.90;;;;;;5007254;28;20191;-68
2021/03/27 00:48:43;;;;;;;7.70;3.23;;;8.20;99.90;;;;;;5019755;28;20231;-66
2021/03/27 00:52:05;;;;;;;7.07;2.90;;;8.20;99.90;;;;;;5004764;28;20193;-69
2021/03/27 00:54:50;;;;;;;10.00;2.93;;;8.20;99.90;;;;;;4979717;28;20688;-66
2021/03/27 00:57:35;;;;;;;7.00;3.27;;;8.10;99.90;;;;;;5002133;28;20685;-68
2021/03/27 01:00:10;;;;;;;8.20;2.90;;;8.00;99.90;;;;;;4986398;28;20196;-68
2021/03/27 01:02:46;;;;;;;5.20;3.20;;;8.00;99.90;;;;;;5001205;28;20185;-67
2021/03/27 01:05:19;;;;;;;7.07;3.20;;;8.00;99.90;;;;;;5003292;28;20176;-67
2021/03/27 01:07:48;;;;;;;5.27;3.03;;;7.90;99.90;;;;;;5005252;28;20243;-67
2021/03/27 01:10:40;;;;;;;7.40;3.00;;;7.80;99.90;;;;;;5005365;28;20189;-66
2021/03/27 01:13:15;;;;;;;6.50;3.03;;;7.60;99.90;;;;;;5000937;28;20326;-69
2021/03/27 01:15:49;;;;;;;5.27;2.73;;;7.50;99.90;;;;;;5005430;28;20310;-66
2021/03/27 01:18:27;;;;;;;4.10;2.90;;;7.50;99.90;;;;;;5003474;28;20211;-66
2021/03/27 01:21:01;;;;;;;4.13;2.90;;;7.40;99.90;;;;;;5003008;28;20184;-65
2021/03/27 01:23:28;;;;;;;5.93;3.00;;;7.30;99.90;;;;;;5005415;28;20253;-66
2021/03/27 01:26:08;;;;;;;5.27;3.30;;;7.20;99.90;;;;;;4998861;28;20557;-66
2021/03/27 01:28:56;;;;;;;6.30;3.60;;;7.00;99.90;;;;;;5017094;28;20759;-67
2021/03/27 01:31:45;;;;;;;7.67;3.13;;;7.00;99.90;;;;;;5001435;28;20250;-66
2021/03/27 01:34:25;;;;;;;5.03;3.30;;;6.90;99.90;;;;;;5004640;28;20200;-67
2021/03/27 01:37:30;;;;;;;6.17;3.10;;;6.90;99.90;;;;;;4987106;28;20721;-68
2021/03/27 01:40:39;;;;;;;5.87;3.00;;;6.80;99.90;;;;;;5003290;28;20197;-67
2021/03/27 01:43:59;;;;;;;4.60;2.90;;;6.80;99.90;;;;;;5001660;28;20177;-67
2021/03/27 01:46:44;;;;;;;6.53;3.10;;;6.70;99.90;;;;;;4963027;28;20292;-68
2021/03/27 01:49:44;;;;;;;6.17;2.60;;;6.70;99.90;;;;;;4999716;28;20264;-68
2021/03/27 01:52:52;;;;;;;6.50;2.90;;;6.60;99.90;;;;;;4993631;28;20289;-68
2021/03/27 01:55:48;;;;;;;4.60;2.87;;;6.70;99.90;;;;;;4998778;28;20193;-67
2021/03/27 01:58:29;;;;;;;4.80;2.60;;;6.60;99.90;;;;;;5000613;28;20750;-68
2021/03/27 02:01:08;;;;;;;4.00;2.60;;;6.50;99.90;;;;;;5000625;28;20181;-67
2021/03/27 02:04:16;;;;;;;6.13;2.70;;;6.40;99.90;;;;;;5002503;28;20184;-66
2021/03/27 02:07:11;;;;;;;4.53;2.80;;;6.40;99.90;;;;;;4995996;28;20850;-67
2021/03/27 02:10:36;;;;;;;4.33;2.70;;;6.40;99.90;;;;;;4975115;28;20677;-67
2021/03/27 02:13:22;;;;;;;5.80;3.00;;;6.30;99.90;;;;;;5002100;28;20181;-66
2021/03/27 02:16:00;;;;;;;5.03;2.63;;;6.30;99.90;;;;;;5002691;28;20193;-65
2021/03/27 02:18:58;;;;;;;3.70;2.80;;;6.20;99.90;;;;;;5003452;28;20216;-67
2021/03/27 02:21:50;;;;;;;6.93;3.13;;;6.20;99.90;;;;;;4998774;28;20187;-67
2021/03/27 02:24:51;;;;;;;6.63;3.20;;;6.10;99.90;;;;;;5001514;28;20200;-69
2021/03/27 02:28:22;;;;;;;4.63;2.90;;;6.10;99.90;;;;;;4999027;28;20322;-67
2021/03/27 02:31:06;;;;;;;6.37;2.90;;;6.10;99.90;;;;;;4947045;28;20714;-66
2021/03/27 02:34:09;;;;;;;6.20;2.80;;;6.10;99.90;;;;;;5002197;28;20287;-68
2021/03/27 02:37:03;;;;;;;6.73;2.60;;;6.00;99.90;;;;;;4959880;28;20205;-66
2021/03/27 02:40:07;;;;;;;8.63;3.47;;;6.10;99.90;;;;;;5003640;28;20193;-68
2021/03/27 02:43:29;;;;;;;5.20;2.80;;;6.00;99.90;;;;;;5001130;28;20852;-66
2021/03/27 02:46:25;;;;;;;2.67;2.40;;;6.00;99.90;;;;;;5000787;28;20908;-68
2021/03/27 02:49:25;;;;;;;4.93;2.53;;;5.90;99.90;;;;;;5002403;28;20189;-68
2021/03/27 02:52:14;;;;;;;7.20;2.90;;;5.80;99.90;;;;;;4998949;28;20200;-67
2021/03/27 02:55:16;;;;;;;3.13;2.30;;;5.80;99.90;;;;;;4986997;28;20193;-67
2021/03/27 02:58:18;;;;;;;5.17;2.63;;;5.80;99.90;;;;;;5001742;28;20216;-67
2021/03/27 03:01:09;;;;;;;3.93;2.57;;;5.70;99.90;;;;;;4981527;28;20196;-66
2021/03/27 03:03:46;;;;;;;3.13;2.43;;;5.60;99.90;;;;;;5018758;28;20280;-69
2021/03/27 03:06:58;;;;;;;3.27;2.67;;;5.50;99.90;;;;;;5001847;28;20185;-67
2021/03/27 03:09:51;;;;;;;5.93;2.70;;;5.50;99.90;;;;;;4976970;28;20637;-66
2021/03/27 03:12:39;;;;;;;4.13;2.90;;;5.50;99.90;;;;;;5004144;28;20917;-67
2021/03/27 03:15:42;;;;;;;4.27;2.70;;;5.60;99.90;;;;;;4998871;28;20189;-66
2021/03/27 03:18:18;;;;;;;7.27;2.97;;;5.60;99.90;;;;;;4952864;28;20763;-66
2021/03/27 03:21:15;;;;;;;7.97;3.10;;;5.60;99.90;;;;;;4981177;28;20196;-67
2021/03/27 03:24:02;;;;;;;7.07;3.00;;;5.50;99.90;;;;;;5000334;28;20550;-68
2021/03/27 03:26:49;;;;;;;5.00;3.10;;;5.50;99.90;;;;;;5002804;28;20193;-67
2021/03/27 03:29:50;;;;;;;7.73;3.07;;;5.30;99.90;;;;;;4998583;28;20905;-67
2021/03/27 03:32:28;;;;;;;4.37;2.73;;;5.20;99.90;;;;;;5002841;28;20188;-66
2021/03/27 03:35:07;;;;;;;5.13;2.80;;;5.20;99.90;;;;;;4986886;28;20535;-67
2021/03/27 03:38:11;;;;;;;7.93;2.80;;;5.10;99.90;;;;;;5005283;28;20393;-66
2021/03/27 03:41:05;;;;;;;5.00;3.10;;;5.10;99.90;;;;;;5000584;28;20193;-66
2021/03/27 03:43:49;;;;;;;3.97;2.83;;;5.10;99.90;;;;;;5001258;28;20250;-69
2021/03/27 03:46:53;;;;;;;7.30;3.00;;;5.10;99.90;;;;;;5003106;28;20200;-66
2021/03/27 03:49:51;;;;;;;4.67;2.60;;;5.10;99.90;;;;;;5005444;28;20188;-68
2021/03/27 03:52:45;;;;;;;4.13;2.87;;;5.00;99.90;;;;;;5003946;28;20177;-66
2021/03/27 03:55:30;;;;;;;5.57;3.10;;;4.90;99.90;;;;;;5000276;28;20325;-68
2021/03/27 03:58:28;;;;;;;5.40;3.23;;;4.90;99.90;;;;;;5004049;28;20259;-69
2021/03/27 04:01:25;;;;;;;6.17;3.00;;;4.90;99.90;;;;;;5003768;28;20665;-66
2021/03/27 04:04:21;;;;;;;3.23;2.70;;;5.00;99.90;;;;;;5006202;28;20194;-68
2021/03/27 04:07:04;;;;;;;8.33;3.40;;;5.10;99.90;;;;;;4993337;28;20631;-68
2021/03/27 04:09:51;;;;;;;6.27;3.30;;;5.20;99.90;;;;;;5000533;28;20255;-70
2021/03/27 04:12:59;;;;;;;4.77;2.83;;;5.10;99.90;;;;;;5004196;28;20260;-67
2021/03/27 04:15:45;;;;;;;3.97;2.73;;;5.10;99.90;;;;;;5001791;28;20966;-68
2021/03/27 04:18:42;;;;;;;6.87;3.03;;;5.20;99.90;;;;;;4984290;28;20238;-65
2021/03/27 04:21:38;;;;;;;4.83;3.27;;;5.20;99.90;;;;;;4985340;28;20181;-70
2021/03/27 04:24:18;;;;;;;4.70;3.07;;;5.10;99.90;;;;;;5003124;28;20189;-67
2021/03/27 04:27:19;;;;;;;5.30;3.23;;;5.20;99.90;;;;;;5001359;28;20284;-69
2021/03/27 04:30:24;;;;;;;8.13;3.80;;;5.20;99.90;;;;;;5002759;28;20188;-71
2021/03/27 04:33:49;;;;;;;4.00;3.30;;;5.40;99.90;;;;;;5021621;28;20241;-68
2021/03/27 04:36:38;;;;;;;4.47;3.20;;;5.40;99.90;;;;;;4974858;28;20200;-68
2021/03/27 04:39:23;;;;;;;5.63;3.23;;;5.50;99.90;;;;;;4981937;28;20609;-67
2021/03/27 04:42:22;;;;;;;7.07;3.50;;;5.50;99.90;;;;;;4988813;28;20189;-66
2021/03/27 04:45:33;;;;;;;7.87;3.53;;;5.50;99.90;;;;;;5007329;28;20649;-66
2021/03/27 04:48:25;;;;;;;5.73;3.30;;;5.70;99.90;;;;;;5001041;28;20897;-65
2021/03/27 04:51:27;;;;;;;5.43;3.40;;;5.70;99.90;;;;;;4989984;28;20318;-68
2021/03/27 04:54:39;;;;;;;3.57;3.10;;;5.70;99.90;;;;;;5004336;28;20195;-67
2021/03/27 04:57:34;;;;;;;5.50;2.93;;;5.70;99.90;;;;;;4970806;28;20221;-69
2021/03/27 05:00:16;;;;;;;6.70;3.30;;;5.80;99.90;;;;;;4988427;28;20254;-69
2021/03/27 05:03:18;;;;;;;4.33;2.90;;;5.80;99.90;;;;;;4989039;28;20193;-66
2021/03/27 05:05:45;;;;;;;5.97;3.27;;;5.80;99.90;;;;;;5002710;28;20285;-67
2021/03/27 05:08:57;;;;;;;4.63;3.37;;;5.90;99.90;;;;;;4985600;28;20191;-68
2021/03/27 05:11:45;;;;;;;5.77;3.50;;;6.10;99.90;;;;;;4990010;28;20185;-66
2021/03/27 05:14:36;;;;;;;4.67;3.27;;;6.20;99.90;;;;;;5005698;28;20192;-66
2021/03/27 05:17:30;;;;;;;5.80;3.20;;;6.40;99.90;;;;;;4991074;28;20216;-66
2021/03/27 05:20:39;;;;;;;5.17;3.03;;;6.50;99.90;;;;;;4989001;28;20585;-67
2021/03/27 05:23:34;;;;;;;6.60;3.70;;;6.70;99.90;;;;;;4986624;28;20663;-65
2021/03/27 05:26:25;;;;;;;4.63;3.30;;;6.80;99.90;;;;;;4984224;28;20193;-67
2021/03/27 05:29:17;;;;;;;5.67;3.53;;;6.90;99.90;;;;;;4989194;28;20199;-65
2021/03/27 05:31:58;;;;;;;9.23;3.07;;;7.10;99.90;;;;;;4985067;28;20199;-66
2021/03/27 05:34:51;;;;;;;6.03;3.37;;;7.20;99.90;;;;;;4986331;28;20193;-67
2021/03/27 05:38:00;;;;;;;4.97;2.93;;;7.30;99.90;;;;;;5004158;28;20185;-67
2021/03/27 05:41:11;;;;;;;4.03;3.33;;;7.50;99.90;;;;;;5005819;28;20594;-66
2021/03/27 05:44:44;;;;;;;6.80;3.20;;;7.60;99.90;;;;;;4993183;28;20188;-67
2021/03/27 05:47:59;;;;;;;5.93;2.90;;;7.60;99.90;;;;;;4968542;28;20641;-65
2021/03/27 05:50:45;;;;;;;3.63;2.73;;;7.90;99.90;;;;;;5007249;28;20180;-66
2021/03/27 05:53:45;;;;;;;5.17;2.97;;;8.10;99.90;;;;;;4985861;28;20744;-66
2021/03/27 05:57:04;;;;;;;5.83;2.93;;;8.20;99.90;;;;;;4984926;28;20212;-69
2021/03/27 05:59:59;;;;;;;4.63;3.10;;;8.40;99.90;;;;;;5002833;28;20613;-67
2021/03/27 06:03:14;;;;;;;5.90;2.80;;;8.40;99.90;;;;;;5016120;28;20221;-67
2021/03/27 06:06:26;;;;;;;4.83;3.33;;;8.70;99.90;;;;;;4994301;28;20220;-68
2021/03/27 06:09:41;;;;;;;5.13;3.23;;;8.80;99.90;;;;;;4987509;28;20189;-68
2021/03/27 06:12:16;;;;;;;7.57;3.00;;;8.90;99.90;;;;;;4986209;28;20188;-70
2021/03/27 06:15:33;;;;;;;5.23;3.00;;;9.00;99.90;;;;;;5001050;28;20188;-66
2021/03/27 06:18:56;;;;;;;5.20;3.00;;;9.10;99.90;;;;;;5005022;28;20645;-69
2021/03/27 06:21:45;;;;;;;7.33;3.20;;;9.30;99.90;;;;;;5006105;28;20204;-64
2021/03/27 06:24:53;;;;;;;9.70;3.03;;;9.40;99.90;;;;;;4989271;28;20208;-65
2021/03/27 06:28:03;;;;;;;5.57;3.23;;;9.40;99.90;;;;;;5016515;28;20778;-65
2021/03/27 06:30:40;;;;;;;3.90;2.87;;;9.50;99.90;;;;;;5000366;28;20193;-65
2021/03/27 06:33:39;;;;;;;4.60;2.80;;;9.60;99.90;;;;;;5007252;28;20232;-65
2021/03/27 06:36:25;;;;;;;6.30;2.73;;;9.60;99.90;;;;;;4984945;28;20200;-68
2021/03/27 06:39:53;;;;;;;5.97;3.07;;;9.70;99.90;;;;;;4984552;28;20754;-67
2021/03/27 06:43:04;;;;;;;4.13;2.97;;;9.80;99.90;;;;;;4985478;28;20676;-65
2021/03/27 06:46:08;;;;;;;7.07;3.40;;;9.90;99.90;;;;;;5002184;28;20200;-65
2021/03/27 06:48:42;;;;;;;11.47;3.10;;;9.90;99.90;;;;;;5019825;28;20608;-67
2021/03/27 06:51:25;;;;;;;5.87;3.20;;;10.10;99.90;;;;;;4989292;28;20220;-66
2021/03/27 06:54:42;;;;;;;8.43;3.30;;;10.20;99.90;;;;;;4991753;28;20201;-65
2021/03/27 06:57:56;;;;;;;4.57;3.10;;;10.10;99.90;;;;;;4987541;28;20271;-65
2021/03/27 07:00:52;;;;;;;9.07;3.27;;;10.10;99.90;;;;;;5006116;28;20203;-66
2021/03/27 07:04:05;;;;;;;9.80;3.30;;;10.40;99.90;;;;;;5002726;28;20603;-66
2021/03/27 07:06:51;;;;;;;5.83;3.13;;;10.50;99.90;;;;;;5004811;28;20188;-64
2021/03/27 07:10:25;;;;;;;5.03;3.20;;;10.40;99.90;;;;;;4995364;28;20655;-65
2021/03/27 07:13:01;;;;;;;6.17;3.50;;;10.30;99.90;;;;;;4955479;28;20256;-66
2021/03/27 07:16:06;;;;;;;8.13;3.53;;;10.40;99.90;;;;;;4987784;28;20287;-69
2021/03/27 07:18:56;;;;;;;6.13;3.47;;;10.60;99.90;;;;;;4988994;28;20220;-66
2021/03/27 07:22:04;;;;;;;24.17;11.73;;;10.60;99.90;;;;;;5004910;28;20339;-65
2021/03/27 07:25:08;;;;;;;9.33;5.60;;;10.70;99.90;;;;;;5002657;28;20235;-67
2021/03/27 07:28:39;;;;;;;4.73;3.57;;;10.80;99.90;;;;;;5006882;28;20271;-69
2021/03/27 07:31:44;;;;;;;11.60;3.87;;;10.90;99.90;;;;;;4998855;28;20192;-67
2021/03/27 07:34:45;;;;;;;6.60;3.00;;;11.00;99.90;;;;;;4999554;28;20207;-65
2021/03/27 07:37:39;;;;;;;7.07;3.27;;;11.10;99.90;;;;;;4986809;28;20588;-68
2021/03/27 07:40:34;;;;;;;7.73;2.90;;;11.20;99.90;;;;;;5003091;28;20203;-68
2021/03/27 07:43:48;;;;;;;5.20;2.50;;;11.30;99.90;;;;;;5005893;28;20189;-66
2021/03/27 07:46:52;;;;;;;4.70;2.87;;;11.50;99.90;;;;;;4975307;28;20189;-67
2021/03/27 07:49:55;;;;;;;5.00;2.97;;;11.50;99.90;;;;;;5004480;28;20185;-67
2021/03/27 07:52:58;;;;;;;4.30;2.90;;;11.60;99.90;;;;;;5004590;28;20197;-67
2021/03/27 07:56:09;;;;;;;4.60;2.60;;;11.90;99.90;;;;;;4983779;28;20652;-67
2021/03/27 07:59:08;;;;;;;3.87;2.47;;;12.00;99.90;;;;;;5005470;28;20559;-66
2021/03/27 08:02:06;;;;;;;7.60;3.53;;;11.90;99.90;;;;;;4986748;28;20193;-66
2021/03/27 08:05:16;;;;;;;7.97;2.90;;;12.00;99.90;;;;;;5008381;28;20383;-67
2021/03/27 08:08:21;;;;;;;4.30;2.70;;;12.10;99.90;;;;;;5005968;28;20665;-65
2021/03/27 08:11:02;;;;;;;4.10;2.70;;;11.80;99.90;;;;;;4987522;28;20190;-66
2021/03/27 08:14:00;;;;;;;5.50;2.43;;;11.80;99.90;;;;;;5009347;28;20192;-65
2021/03/27 08:17:32;;;;;;;3.60;2.67;;;11.80;99.90;;;;;;4991994;28;20512;-68
2021/03/27 08:20:39;;;;;;;4.67;2.07;;;11.90;99.90;;;;;;4989113;28;20934;-66
2021/03/27 08:23:14;;;;;;;5.20;2.60;;;11.80;99.90;;;;;;5005075;28;20511;-65
2021/03/27 08:26:39;;;;;;;6.30;2.40;;;11.90;99.90;;;;;;4989216;28;20200;-67
2021/03/27 08:29:50;;;;;;;4.37;2.47;;;11.90;99.90;;;;;;5007390;28;20193;-68
2021/03/27 08:32:55;;;;;;;7.83;2.80;;;12.00;99.90;;;;;;5002993;28;20197;-66
2021/03/27 08:35:53;;;;;;;3.53;2.37;;;12.10;99.90;;;;;;4989477;28;20188;-65
2021/03/27 08:38:36;;;;;;;6.80;2.80;;;12.10;99.90;;;;;;5019218;28;20586;-66
2021/03/27 08:41:39;;;;;;;4.17;2.53;;;12.10;99.90;;;;;;4987830;28;20247;-67
2021/03/27 08:45:09;;;;;;;5.27;2.10;;;12.10;99.90;;;;;;4999154;28;20231;-67
2021/03/27 08:47:59;;;;;;;4.83;2.70;;;12.30;99.90;;;;;;4988729;28;20988;-67
2021/03/27 08:51:08;;;;;;;3.27;2.30;;;12.30;99.90;;;;;;4988747;28;20177;-68
2021/03/27 08:54:01;;;;;;;4.10;2.13;;;12.40;99.90;;;;;;5003341;28;20283;-65
2021/03/27 08:56:56;;;;;;;3.57;2.47;;;12.50;99.90;;;;;;5002530;28;20558;-65
2021/03/27 09:00:02;;;;;;;5.37;2.37;;;12.60;99.90;;;;;;5003100;28;20861;-66
2021/03/27 09:03:13;;;;;;;4.17;2.80;;;12.60;99.90;;;;;;4987544;28;20680;-65
2021/03/27 09:06:16;;;;;;;5.50;2.60;;;12.60;99.90;;;;;;4988620;28;20275;-65
2021/03/27 09:09:27;;;;;;;4.80;2.83;;;12.80;99.90;;;;;;4988879;28;20181;-65
2021/03/27 09:12:18;;;;;;;8.00;2.47;;;12.80;99.90;;;;;;5020083;28;20235;-66
2021/03/27 09:15:10;;;;;;;6.83;2.07;;;12.90;99.90;;;;;;5005895;28;20193;-66
2021/03/27 09:18:36;;;;;;;5.43;2.40;;;13.00;99.90;;;;;;4986865;28;20228;-64
2021/03/27 09:21:41;;;;;;;5.47;2.40;;;13.00;99.90;;;;;;4968103;28;20200;-67
2021/03/27 09:24:44;;;;;;;4.83;2.90;;;13.20;99.90;;;;;;5006561;28;20193;-65
2021/03/27 09:28:01;;;;;;;7.63;2.43;;;13.20;99.90;;;;;;4999555;28;20188;-66
2021/03/27 09:31:05;;;;;;;5.30;2.30;;;13.20;99.90;;;;;;4988468;28;20584;-67
2021/03/27 09:33:46;;;;;;;6.50;2.17;;;13.30;99.90;;;;;;5011235;28;20291;-67
2021/03/27 09:36:51;;;;;;;3.20;2.20;;;13.50;99.90;;;;;;5006540;28;20181;-68
2021/03/27 09:40:08;;;;;;;6.30;2.20;;;13.70;99.90;;;;;;4998787;28;20232;-68
2021/03/27 09:43:31;;;;;;;5.67;2.30;;;13.70;99.90;;;;;;4987216;28;20988;-69
2021/03/27 09:46:30;;;;;;;10.20;2.53;;;13.80;99.90;;;;;;5000630;28;20243;-70
2021/03/27 09:49:28;;;;;;;3.63;2.17;;;13.60;99.90;;;;;;4988136;28;20645;-70
2021/03/27 09:52:28;;;;;;;8.87;2.73;;;13.60;99.90;;;;;;5003129;28;20193;-68
2021/03/27 09:55:49;;;;;;;3.40;2.10;;;13.80;99.90;;;;;;5004562;28;20802;-68
2021/03/27 09:58:52;;;;;;;6.03;2.23;;;13.90;99.90;;;;;;4941194;29;20214;-68
2021/03/27 10:01:37;;;;;;;3.17;2.40;;;14.10;99.90;;;;;;4940124;28;20226;-68
2021/03/27 10:04:43;;;;;;;10.03;2.13;;;14.20;99.90;;;;;;4983296;28;20204;-66
2021/03/27 10:07:26;;;;;;;3.20;2.00;;;14.10;99.90;;;;;;4999648;28;20413;-66
2021/03/27 10:10:27;;;;;;;3.80;2.20;;;14.10;99.90;;;;;;4998298;28;20203;-68
2021/03/27 10:13:36;;;;;;;2.40;1.80;;;14.00;99.90;;;;;;5004495;28;20654;-67
2021/03/27 10:16:40;;;;;;;3.53;1.93;;;14.30;99.90;;;;;;4986574;28;20192;-67
2021/03/27 10:19:30;;;;;;;4.40;2.00;;;14.40;99.90;;;;;;4970411;28;20331;-65
2021/03/27 10:22:13;;;;;;;7.63;2.20;;;14.70;99.90;;;;;;5018840;28;20242;-66
2021/03/27 10:25:08;;;;;;;3.40;2.00;;;14.70;99.90;;;;;;5001187;28;20577;-66
2021/03/27 10:28:25;;;;;;;4.70;1.90;;;14.70;99.90;;;;;;5002572;28;20263;-68
2021/03/27 10:30:56;;;;;;;8.67;2.30;;;14.90;99.90;;;;;;4974447;28;20200;-65
2021/03/27 10:34:26;;;;;;;2.70;1.90;;;14.80;99.90;;;;;;4984973;28;20211;-65
2021/03/27 10:37:09;;;;;;;4.80;2.40;;;15.10;99.90;;;;;;5002288;28;20451;-65
2021/03/27 10:40:19;;;;;;;4.20;1.93;;;15.10;99.90;;;;;;4989863;28;20224;-66
2021/03/27 10:43:26;;;;;;;2.97;2.20;;;15.10;99.90;;;;;;5002619;28;20200;-67
2021/03/27 10:46:19;;;;;;;2.67;1.90;;;15.60;99.90;;;;;;5007008;28;20558;-68
2021/03/27 10:49:12;;;;;;;4.87;2.10;;;15.20;99.90;;;;;;4992898;28;20207;-65
2021/03/27 10:53:09;;;;;;;4.83;2.13;;;15.40;99.90;;;;;;5024019;28;20184;-66
2021/03/27 10:56:47;;;;;;;4.17;2.10;;;15.70;99.90;;;;;;4924817;28;20208;-66
2021/03/27 10:59:50;;;;;;;3.30;2.10;;;15.80;99.90;;;;;;4960841;28;20233;-64
2021/03/27 11:03:09;;;;;;;2.90;2.10;;;15.70;99.90;;;;;;4989457;28;20294;-64
2021/03/27 11:06:24;;;;;;;3.60;2.03;;;15.80;99.90;;;;;;4974024;28;20205;-65
2021/03/27 11:09:42;;;;;;;2.30;1.80;;;15.60;99.90;;;;;;5018966;28;20196;-66
2021/03/27 11:12:52;;;;;;;3.20;1.80;;;16.00;99.90;;;;;;4991480;28;21037;-65
2021/03/27 11:15:38;;;;;;;2.63;2.07;;;15.70;99.90;;;;;;5000604;28;20209;-65
2021/03/27 11:18:40;;;;;;;2.63;1.73;;;15.90;99.90;;;;;;5004576;28;20306;-66
2021/03/27 11:21:31;;;;;;;2.00;1.50;;;16.00;99.90;;;;;;5001792;28;20394;-65
2021/03/27 11:25:00;;;;;;;6.40;1.80;;;16.00;99.90;;;;;;5024220;28;20188;-66
2021/03/27 11:28:14;;;;;;;3.43;1.97;;;15.90;99.90;;;;;;5024074;28;20193;-65
2021/03/27 11:30:41;;;;;;;2.17;1.70;;;15.50;99.90;;;;;;4990865;28;20207;-66
2021/03/27 11:33:23;;;;;;;2.37;1.60;;;15.50;99.90;;;;;;5006463;28;20255;-65
2021/03/27 11:36:24;;;;;;;1.60;1.50;;;15.60;99.90;;;;;;5005886;28;20189;-67
2021/03/27 11:39:50;;;;;;;5.57;1.50;;;15.50;99.90;;;;;;5021592;28;20215;-64
2021/03/27 11:42:57;;;;;;;1.83;1.63;;;15.50;99.40;;;;;;5006835;28;20203;-64
2021/03/27 11:45:47;;;;;;;2.70;1.63;;;15.40;99.90;;;;;;5005163;28;20264;-65
2021/03/27 11:48:40;;;;;;;2.30;1.77;;;15.10;99.90;;;;;;5005976;28;20197;-65
2021/03/27 11:51:36;;;;;;;3.43;1.60;;;15.20;99.90;;;;;;4987957;28;20185;-65
2021/03/27 11:54:48;;;;;;;4.80;2.17;;;15.20;99.90;;;;;;5001611;28;20279;-66
2021/03/27 11:57:49;;;;;;;1.87;1.67;;;15.00;99.90;;;;;;5001003;28;20745;-67
2021/03/27 12:00:47;;;;;;;4.60;1.97;;;14.90;99.90;;;;;;5008788;28;20189;-68
2021/03/27 12:03:28;;;;;;;3.20;1.70;;;14.90;99.90;;;;;;5002486;28;20215;-65
2021/03/27 12:06:32;;;;;;;3.57;1.50;;;15.00;99.90;;;;;;4999544;28;20198;-67
2021/03/27 12:09:24;;;;;;;4.27;1.80;;;15.00;99.90;;;;;;5017389;28;20189;-65
2021/03/27 12:12:00;;;;;;;2.63;1.73;;;14.90;99.90;;;;;;5005835;28;20235;-65
2021/03/27 12:14:58;;;;;;;1.73;1.40;;;14.90;99.90;;;;;;5007093;28;20219;-63
2021/03/27 12:17:51;;;;;;;2.63;1.80;;;14.90;99.90;;;;;;5004547;28;20811;-67
2021/03/27 12:20:59;;;;;;;4.73;1.83;;;14.80;99.90;;;;;;5000421;28;20189;-65
2021/03/27 12:23:39;;;;;;;9.30;2.07;;;14.80;99.90;;;;;;5003518;28;20231;-66
2021/03/27 12:26:20;;;;;;;1.77;1.50;;;14.80;99.90;;;;;;5005030;28;20189;-67
2021/03/27 12:29:10;;;;;;;3.57;1.87;;;14.80;99.90;;;;;;5021061;28;20222;-66
2021/03/27 12:32:27;;;;;;;3.23;1.67;;;14.90;99.90;;;;;;5004965;28;20192;-65
2021/03/27 12:35:19;;;;;;;2.83;1.60;;;14.70;99.90;;;;;;5001194;28;20201;-64
2021/03/27 12:38:06;;;;;;;5.67;1.90;;;14.60;99.90;;;;;;5003250;28;20221;-67
2021/03/27 12:40:39;;;;;;;3.33;1.73;;;14.50;99.90;;;;;;4983867;28;20211;-66
2021/03/27 12:43:17;;;;;;;2.70;1.90;;;14.40;99.90;;;;;;5004654;28;20319;-64
2021/03/27 12:45:57;;;;;;;4.30;1.87;;;14.40;99.90;;;;;;5003882;28;20998;-66
2021/03/27 12:49:00;;;;;;;3.70;1.73;;;14.40;99.90;;;;;;5005223;28;20192;-65
2021/03/27 12:52:04;;;;;;;2.87;1.73;;;14.60;99.90;;;;;;4989043;28;20192;-65
2021/03/27 12:54:58;;;;;;;7.10;2.00;;;14.60;99.90;;;;;;4992310;28;20236;-66
2021/03/27 12:58:47;;;;;;;3.03;1.70;;;14.60;99.90;;;;;;5000972;28;20212;-66
2021/03/27 13:01:31;;;;;;;6.97;2.40;;;14.30;99.90;;;;;;4983573;28;20318;-64
2021/03/27 13:05:09;;;;;;;5.10;1.80;;;14.40;99.90;;;;;;5002652;28;20656;-64
2021/03/27 13:07:57;;;;;;;4.30;2.00;;;13.90;99.90;;;;;;4972563;28;20200;-65
2021/03/27 13:10:54;;;;;;;2.00;1.60;;;14.30;99.90;;;;;;5006967;28;20262;-64
2021/03/27 13:14:07;;;;;;;4.77;1.70;;;14.20;99.90;;;;;;5000606;28;21323;-68
2021/03/27 13:16:49;;;;;;;2.33;1.83;;;13.70;99.90;;;;;;5005430;28;20538;-66
2021/03/27 13:19:45;;;;;;;4.70;1.80;;;13.90;99.90;;;;;;5021448;28;20311;-67
2021/03/27 13:22:29;;;;;;;3.53;1.90;;;14.00;99.90;;;;;;5002199;28;21157;-67
2021/03/27 13:25:22;;;;;;;5.30;1.90;;;14.10;99.90;;;;;;5006225;28;20258;-66
2021/03/27 13:28:24;;;;;;;2.33;1.53;;;13.80;99.90;;;;;;5003654;28;20271;-66
2021/03/27 13:31:14;;;;;;;2.10;1.90;;;14.00;99.90;;;;;;5003973;28;20192;-67
2021/03/27 13:33:59;;;;;;;4.30;1.83;;;13.70;99.90;;;;;;5001209;28;20703;-66
2021/03/27 13:36:45;;;;;;;4.73;1.80;;;13.40;99.90;;;;;;5005415;28;20196;-66
2021/03/27 13:39:41;;;;;;;3.50;1.80;;;13.60;99.90;;;;;;5004664;28;20220;-65
2021/03/27 13:43:09;;;;;;;2.40;1.70;;;13.70;99.90;;;;;;4997088;28;20189;-65
2021/03/27 13:45:45;;;;;;;5.03;1.90;;;13.20;99.90;;;;;;4993827;28;20250;-69
2021/03/27 13:48:29;;;;;;;2.63;1.70;;;13.50;99.90;;;;;;5005345;28;20691;-67
2021/03/27 13:51:42;;;;;;;3.07;1.73;;;13.50;99.90;;;;;;5005552;28;20184;-65
2021/03/27 13:54:26;;;;;;;5.73;1.60;;;13.60;99.90;;;;;;5004011;28;20803;-66
2021/03/27 13:57:19;;;;;;;3.37;1.63;;;13.60;99.90;;;;;;5002499;28;20235;-65
2021/03/27 13:59:54;;;;;;;2.70;1.70;;;13.40;99.90;;;;;;5004013;28;20231;-66
2021/03/27 14:02:39;;;;;;;3.17;1.80;;;13.30;99.90;;;;;;5019362;28;20684;-66
2021/03/27 14:05:37;;;;;;;3.73;2.00;;;13.40;99.90;;;;;;5005689;28;20203;-67
2021/03/27 14:08:18;;;;;;;2.10;1.80;;;13.20;99.90;;;;;;5003308;28;20204;-66
2021/03/27 14:11:22;;;;;;;2.83;1.80;;;12.90;99.90;;;;;;5003953;28;20276;-65
2021/03/27 14:14:03;;;;;;;3.47;1.90;;;13.00;99.90;;;;;;5000316;28;20288;-66
2021/03/27 14:17:18;;;;;;;3.00;1.90;;;13.10;99.90;;;;;;5002545;28;20192;-66
2021/03/27 14:20:07;;;;;;;5.20;2.00;;;13.20;99.90;;;;;;4996290;28;20226;-66
2021/03/27 14:23:01;;;;;;;4.03;2.00;;;13.00;99.90;;;;;;5004155;28;20188;-65
2021/03/27 14:25:57;;;;;;;4.13;2.00;;;13.00;99.90;;;;;;5000438;28;20185;-65
2021/03/27 14:29:09;;;;;;;3.03;1.70;;;12.90;99.90;;;;;;5003436;28;20227;-66
2021/03/27 14:31:46;;;;;;;4.80;2.33;;;12.80;99.90;;;;;;4986279;28;20211;-65
2021/03/27 14:34:15;;;;;;;2.40;1.70;;;12.90;99.90;;;;;;4987300;28;20200;-67
2021/03/27 14:37:01;;;;;;;2.37;1.80;;;12.60;99.90;;;;;;5003992;28;20201;-65
2021/03/27 14:40:03;;;;;;;2.27;1.70;;;12.70;99.90;;;;;;4985172;28;20303;-66
2021/03/27 14:42:47;;;;;;;2.67;1.77;;;12.70;99.90;;;;;;4985470;28;20236;-67
2021/03/27 14:45:45;;;;;;;3.43;2.10;;;12.70;99.90;;;;;;5003512;28;20204;-66
2021/03/27 14:48:27;;;;;;;2.93;1.70;;;12.60;99.90;;;;;;4998466;28;20221;-67
2021/03/27 14:51:31;;;;;;;3.83;1.70;;;12.50;99.90;;;;;;5002700;28;20644;-66
2021/03/27 14:54:21;;;;;;;2.73;1.80;;;12.60;99.90;;;;;;4987138;28;20204;-67
2021/03/27 14:57:06;;;;;;;8.33;2.20;;;12.50;99.90;;;;;;4999836;28;20234;-66
2021/03/27 14:59:39;;;;;;;3.73;1.90;;;12.50;99.90;;;;;;5002498;28;20216;-65
2021/03/27 15:02:21;;;;;;;3.67;2.10;;;12.40;99.90;;;;;;5003257;28;20196;-65
2021/03/27 15:05:13;;;;;;;3.00;1.63;;;12.30;99.90;;;;;;5003961;28;20200;-70
2021/03/27 15:07:44;;;;;;;3.20;1.63;;;12.40;99.90;;;;;;5018201;28;20689;-68
2021/03/27 15:10:57;;;;;;;3.00;1.90;;;12.30;99.90;;;;;;4993967;28;20196;-65
2021/03/27 15:13:42;;;;;;;7.90;1.80;;;12.20;99.90;;;;;;5002273;28;20778;-66
2021/03/27 15:16:32;;;;;;;3.97;2.10;;;12.00;99.90;;;;;;5000148;28;20189;-69
2021/03/27 15:19:26;;;;;;;4.70;1.97;;;12.10;99.90;;;;;;4997470;28;20964;-70
2021/03/27 15:22:27;;;;;;;3.03;2.03;;;12.10;99.90;;;;;;5004118;28;20224;-66
2021/03/27 15:28:58;;;;;;;3.00;2.27;;;12.00;99.90;;;;;;5019973;28;20185;-66